Terminal Aerodrome Forecast
Issued by NWS

Home | Current Version | Previous Version | Text Only | Print | Product List | Glossary On
Versions: 1 2 3 4 5 6 7 8 9 10 11 12
000
FTUS44 KBMX 221129
TAFANB
TAF
KANB 221129Z 2212/2312 11003KT P6SM SCT250
      TEMPO 2212/2213 4SM BR
     FM221700 22006KT P6SM VCTS SCT040CB
     FM230100 22003KT P6SM BKN250
     FM231000 00000KT 4SM BR SCT250=

USA.gov is the U.S. government's official web portal to all federal, state and local government web resources and services.